createdAt,value
2019-03-24T00:00:01.117Z,10.87
2019-03-24T00:02:34.547Z,10.47
2019-03-24T00:05:06.730Z,10.53
2019-03-24T00:07:38.232Z,11.30
2019-03-24T00:10:09.818Z,10.47
2019-03-24T00:12:41.345Z,10.67
2019-03-24T00:15:12.870Z,11.30
2019-03-24T00:17:44.393Z,11.20
2019-03-24T00:20:15.973Z,10.10
2019-03-24T00:22:47.556Z,10.83
2019-03-24T00:25:19.070Z,9.43
2019-03-24T00:27:50.579Z,9.77
2019-03-24T00:30:22.072Z,11.90
2019-03-24T00:32:53.595Z,12.37
2019-03-24T00:35:25.235Z,11.83
2019-03-24T00:37:56.768Z,10.93
2019-03-24T00:40:28.276Z,10.53
2019-03-24T00:42:59.787Z,9.93
2019-03-24T00:45:36.742Z,9.67
2019-03-24T00:48:04.548Z,10.70
2019-03-24T00:50:36.151Z,11.47
2019-03-24T00:53:07.675Z,9.30
2019-03-24T00:55:39.245Z,7.60
2019-03-24T00:58:10.766Z,9.67
2019-03-24T01:00:47.585Z,10.07
2019-03-24T01:03:19.235Z,7.60
2019-03-24T01:05:50.844Z,9.57
2019-03-24T01:08:22.443Z,6.73
2019-03-24T01:10:54.015Z,8.33
2019-03-24T01:13:25.536Z,8.27
2019-03-24T01:15:57.053Z,8.53
2019-03-24T01:18:28.838Z,11.23
2019-03-24T01:21:00.425Z,9.67
2019-03-24T01:23:32.003Z,9.23
2019-03-24T01:26:03.502Z,9.13
2019-03-24T01:28:35.040Z,8.97
2019-03-24T01:31:06.586Z,10.20
2019-03-24T01:33:38.110Z,10.27
2019-03-24T01:36:09.619Z,9.33
2019-03-24T01:38:41.121Z,10.47
2019-03-24T01:41:12.617Z,9.10
2019-03-24T01:43:44.112Z,9.53
2019-03-24T01:46:15.607Z,9.50
2019-03-24T01:48:47.119Z,10.93
2019-03-24T01:51:18.715Z,9.57
2019-03-24T01:53:50.256Z,10.33
2019-03-24T01:56:21.736Z,10.27
2019-03-24T01:58:53.325Z,10.73
2019-03-24T02:01:24.842Z,8.03
2019-03-24T02:03:56.354Z,10.33
2019-03-24T02:06:27.872Z,11.27
2019-03-24T02:08:59.459Z,9.20
2019-03-24T02:11:30.939Z,11.57
2019-03-24T02:14:02.456Z,8.73
2019-03-24T02:16:34.052Z,9.70
2019-03-24T02:19:05.583Z,10.47
2019-03-24T02:21:37.094Z,9.93
2019-03-24T02:24:08.683Z,9.13
2019-03-24T02:26:40.295Z,10.63
2019-03-24T02:29:11.809Z,8.97
2019-03-24T02:31:43.330Z,10.70
2019-03-24T02:34:14.923Z,9.10
2019-03-24T02:36:46.618Z,9.10
2019-03-24T02:39:18.187Z,9.00
2019-03-24T02:41:49.710Z,8.23
2019-03-24T02:44:21.223Z,11.23
2019-03-24T02:46:52.772Z,9.03
2019-03-24T02:49:24.336Z,10.83
2019-03-24T02:51:55.854Z,9.73
2019-03-24T02:54:27.678Z,9.67
2019-03-24T02:56:59.186Z,9.00
2019-03-24T02:59:30.697Z,9.47
2019-03-24T03:02:02.204Z,7.40
2019-03-24T03:04:33.787Z,10.33
2019-03-24T03:07:05.322Z,7.40
2019-03-24T03:09:36.846Z,8.40
2019-03-24T03:12:08.429Z,9.63
2019-03-24T03:14:40.002Z,11.13
2019-03-24T03:17:11.488Z,10.03
2019-03-24T03:19:43.106Z,10.07
2019-03-24T03:22:14.675Z,9.57
2019-03-24T03:24:46.181Z,10.67
2019-03-24T03:27:17.689Z,10.13
2019-03-24T03:29:49.206Z,10.53
2019-03-24T03:32:20.712Z,10.70
2019-03-24T03:34:52.225Z,8.37
2019-03-24T03:37:23.807Z,8.30
2019-03-24T03:39:58.194Z,10.07
2019-03-24T03:42:28.523Z,9.37
2019-03-24T03:45:00.264Z,7.80
2019-03-24T03:47:34.073Z,10.53
2019-03-24T03:50:07.131Z,10.10
2019-03-24T03:52:38.716Z,6.93
2019-03-24T03:55:10.219Z,8.60
2019-03-24T03:57:41.735Z,8.93
2019-03-24T04:00:13.264Z,10.13
2019-03-24T04:02:44.923Z,11.10
2019-03-24T04:05:16.414Z,8.63
2019-03-24T04:07:47.975Z,9.70
2019-03-24T04:10:19.498Z,9.30
2019-03-24T04:12:51.017Z,8.40
2019-03-24T04:15:22.562Z,8.77
2019-03-24T04:17:54.135Z,7.93
2019-03-24T04:20:25.645Z,10.90
2019-03-24T04:22:57.159Z,8.30
2019-03-24T04:25:28.723Z,8.60
2019-03-24T04:28:00.239Z,10.10
2019-03-24T04:30:31.882Z,8.47
2019-03-24T04:33:03.400Z,10.33
2019-03-24T04:35:34.975Z,8.87
2019-03-24T04:38:06.492Z,10.23
2019-03-24T04:40:38.007Z,9.53
2019-03-24T04:43:09.517Z,9.33
2019-03-24T04:45:41.044Z,9.63
2019-03-24T04:48:12.630Z,8.37
2019-03-24T04:50:44.119Z,8.07
2019-03-24T04:53:15.706Z,9.37
2019-03-24T04:55:47.307Z,7.93
2019-03-24T04:58:18.866Z,11.37
2019-03-24T05:00:50.446Z,10.90
2019-03-24T05:03:21.958Z,9.60
2019-03-24T05:05:53.450Z,7.77
2019-03-24T05:08:25.047Z,9.03
2019-03-24T05:10:56.527Z,9.57
2019-03-24T05:13:28.139Z,7.63
2019-03-24T05:15:59.635Z,9.23
2019-03-24T05:18:31.222Z,6.37
2019-03-24T05:21:02.820Z,8.47
2019-03-24T05:23:34.324Z,11.23
2019-03-24T05:26:05.831Z,10.27
2019-03-24T05:28:37.399Z,9.90
2019-03-24T05:31:08.961Z,9.93
2019-03-24T05:33:40.564Z,9.57
2019-03-24T05:36:12.130Z,7.27
2019-03-24T05:38:43.695Z,8.27
2019-03-24T05:41:15.262Z,7.70
2019-03-24T05:43:47.326Z,7.50
2019-03-24T05:46:18.994Z,10.20
2019-03-24T05:48:50.584Z,8.20
2019-03-24T05:51:22.295Z,7.23
2019-03-24T05:53:53.794Z,8.23
2019-03-24T05:56:25.314Z,8.47
2019-03-24T05:58:56.830Z,7.93
2019-03-24T06:01:28.331Z,8.17
2019-03-24T06:03:59.838Z,6.53
2019-03-24T06:06:31.396Z,7.57
2019-03-24T06:09:02.901Z,7.63
2019-03-24T06:11:34.535Z,8.33
2019-03-24T06:14:06.195Z,8.70
2019-03-24T06:16:38.042Z,8.13
2019-03-24T06:19:09.654Z,9.70
2019-03-24T06:21:41.188Z,8.10
2019-03-24T06:24:12.784Z,8.53
2019-03-24T06:26:44.408Z,7.80
2019-03-24T06:29:15.934Z,10.17
2019-03-24T06:31:47.449Z,10.90
2019-03-24T06:34:18.984Z,9.30
2019-03-24T06:36:50.570Z,10.15
2019-03-24T06:39:22.092Z,8.90
2019-03-24T06:41:53.620Z,8.80
2019-03-24T06:44:25.148Z,8.73
2019-03-24T06:46:56.735Z,9.35
2019-03-24T06:49:28.353Z,8.15
2019-03-24T06:51:59.857Z,7.40
2019-03-24T06:54:31.375Z,8.68
2019-03-24T06:57:02.952Z,7.62
2019-03-24T06:59:34.490Z,7.95
2019-03-24T07:02:06.131Z,8.63
2019-03-24T07:04:37.709Z,9.45
2019-03-24T07:07:09.233Z,7.10
2019-03-24T07:09:40.840Z,6.25
2019-03-24T07:12:12.342Z,8.80
2019-03-24T07:14:43.916Z,5.83
2019-03-24T07:17:15.496Z,6.85
2019-03-24T07:19:47.092Z,6.87
2019-03-24T07:22:18.772Z,6.03
2019-03-24T07:24:50.305Z,7.10
2019-03-24T07:27:21.895Z,6.25
2019-03-24T07:29:53.402Z,5.70
2019-03-24T07:32:24.912Z,4.75
2019-03-24T07:34:56.451Z,5.72
2019-03-24T07:37:28.032Z,5.35
2019-03-24T07:39:59.638Z,5.28
2019-03-24T07:42:31.140Z,4.37
2019-03-24T07:45:02.674Z,4.65
2019-03-24T07:47:34.345Z,4.37
2019-03-24T07:50:09.082Z,4.25
2019-03-24T07:52:40.583Z,6.80
2019-03-24T07:55:14.816Z,5.72
2019-03-24T07:57:46.461Z,4.67
2019-03-24T08:00:34.638Z,4.33
2019-03-24T08:03:06.224Z,3.00
2019-03-24T08:05:37.712Z,4.20
2019-03-24T08:08:09.240Z,4.45
2019-03-24T08:10:40.754Z,4.35
2019-03-24T08:13:12.377Z,3.55
2019-03-24T08:15:47.855Z,2.98
2019-03-24T08:18:29.296Z,3.10
2019-03-24T08:20:56.822Z,2.98
2019-03-24T08:23:28.501Z,3.17
2019-03-24T08:26:01.649Z,3.33
2019-03-24T08:28:33.145Z,2.70
2019-03-24T08:31:04.740Z,3.20
2019-03-24T08:33:36.397Z,2.75
2019-03-24T08:36:07.933Z,3.17
2019-03-24T08:38:39.645Z,2.72
2019-03-24T08:41:11.160Z,2.70
2019-03-24T08:43:42.716Z,2.17
2019-03-24T08:46:14.391Z,2.50
2019-03-24T08:48:45.984Z,2.50
2019-03-24T08:51:17.513Z,2.60
2019-03-24T08:53:49.029Z,2.35
2019-03-24T08:56:20.564Z,1.85
2019-03-24T08:58:52.062Z,3.37
2019-03-24T09:01:23.595Z,3.00
2019-03-24T09:03:55.091Z,2.70
2019-03-24T09:06:26.625Z,1.95
2019-03-24T09:08:58.160Z,3.12
2019-03-24T09:11:31.439Z,3.77
2019-03-24T09:14:02.880Z,3.00
2019-03-24T09:16:34.363Z,2.50
2019-03-24T09:19:05.880Z,3.35
2019-03-24T09:21:37.498Z,2.65
2019-03-24T09:24:09.023Z,2.87
2019-03-24T09:26:40.633Z,2.70
2019-03-24T09:29:12.191Z,3.17
2019-03-24T09:31:43.797Z,3.00
2019-03-24T09:34:15.283Z,1.98
2019-03-24T09:36:46.891Z,2.58
2019-03-24T09:39:18.380Z,2.92
2019-03-24T09:41:49.983Z,3.00
2019-03-24T09:44:21.507Z,2.27
2019-03-24T09:46:53.025Z,1.90
2019-03-24T09:49:24.578Z,2.00
2019-03-24T09:51:56.089Z,1.80
2019-03-24T09:54:27.594Z,2.00
2019-03-24T09:56:59.083Z,2.05
2019-03-24T09:59:30.708Z,1.82
2019-03-24T10:02:02.220Z,2.05
2019-03-24T10:04:33.736Z,1.70
2019-03-24T10:07:05.283Z,1.87
2019-03-24T10:09:36.795Z,2.00
2019-03-24T10:12:08.370Z,2.47
2019-03-24T10:14:39.948Z,2.22
2019-03-24T10:17:11.451Z,2.80
2019-03-24T10:19:42.966Z,2.12
2019-03-24T10:22:15.513Z,1.85
2019-03-24T10:24:47.079Z,2.62
2019-03-24T10:27:18.673Z,2.17
2019-03-24T10:29:50.179Z,2.45
2019-03-24T10:32:21.705Z,2.20
2019-03-24T10:34:53.217Z,2.30
2019-03-24T10:37:24.732Z,2.50
2019-03-24T10:39:56.317Z,2.67
2019-03-24T10:42:27.828Z,2.42
2019-03-24T10:44:59.337Z,2.80
2019-03-24T10:47:30.851Z,2.02
2019-03-24T10:50:02.387Z,1.67
2019-03-24T10:52:34.017Z,2.20
2019-03-24T10:55:10.964Z,2.00
2019-03-24T10:57:42.522Z,1.82
2019-03-24T11:00:14.817Z,1.85
2019-03-24T11:02:48.125Z,2.12
2019-03-24T11:05:19.703Z,1.85
2019-03-24T11:07:51.229Z,2.00
2019-03-24T11:10:22.828Z,1.85
2019-03-24T11:12:54.344Z,2.17
2019-03-24T11:15:25.908Z,1.75
2019-03-24T11:17:57.441Z,1.60
2019-03-24T11:20:30.799Z,1.57
2019-03-24T11:23:02.376Z,1.85
2019-03-24T11:25:33.900Z,1.62
2019-03-24T11:28:05.413Z,1.50
2019-03-24T11:30:36.917Z,1.50
2019-03-24T11:33:08.439Z,2.00
2019-03-24T11:35:39.941Z,1.37
2019-03-24T11:38:11.521Z,1.82
2019-03-24T11:40:43.037Z,1.65
2019-03-24T11:43:15.511Z,1.90
2019-03-24T11:45:47.025Z,1.95
2019-03-24T11:48:18.542Z,2.00
2019-03-24T11:50:50.080Z,1.82
2019-03-24T11:53:21.594Z,1.85
2019-03-24T11:55:53.207Z,2.08
2019-03-24T11:58:24.729Z,2.00
2019-03-24T12:00:56.235Z,1.70
2019-03-24T12:03:27.822Z,1.47
2019-03-24T12:05:59.326Z,1.92
2019-03-24T12:08:30.852Z,2.35
2019-03-24T12:11:02.461Z,1.77
2019-03-24T12:13:34.024Z,1.65
2019-03-24T12:16:05.531Z,1.82
2019-03-24T12:18:37.041Z,2.37
2019-03-24T12:21:08.641Z,2.58
2019-03-24T12:23:40.262Z,2.08
2019-03-24T12:26:11.777Z,2.60
2019-03-24T12:28:43.286Z,2.37
2019-03-24T12:31:14.852Z,1.70
2019-03-24T12:33:46.353Z,2.75
2019-03-24T12:36:17.944Z,1.85
2019-03-24T12:38:49.633Z,2.27
2019-03-24T12:41:21.195Z,1.95
2019-03-24T12:43:52.703Z,1.98
2019-03-24T12:46:24.219Z,1.85
2019-03-24T12:48:55.797Z,1.95
2019-03-24T12:51:27.311Z,1.95
2019-03-24T12:53:58.828Z,2.22
2019-03-24T12:56:30.392Z,1.77
2019-03-24T12:59:01.910Z,2.10
2019-03-24T13:01:33.421Z,1.80
2019-03-24T13:04:04.907Z,1.98
2019-03-24T13:06:36.420Z,2.00
2019-03-24T13:09:08.472Z,2.50
2019-03-24T13:11:39.980Z,1.95
2019-03-24T13:14:11.614Z,2.20
2019-03-24T13:16:43.206Z,1.90
2019-03-24T13:19:14.721Z,1.55
2019-03-24T13:21:46.347Z,1.90
2019-03-24T13:24:17.870Z,1.70
2019-03-24T13:26:49.368Z,1.55
2019-03-24T13:29:20.898Z,1.77
2019-03-24T13:31:52.388Z,2.17
2019-03-24T13:34:24.001Z,2.22
2019-03-24T13:36:55.478Z,1.82
2019-03-24T13:39:26.991Z,2.00
2019-03-24T13:41:58.506Z,1.10
2019-03-24T13:44:30.054Z,1.25
2019-03-24T13:47:01.624Z,1.60
2019-03-24T13:49:33.132Z,1.82
2019-03-24T13:52:04.758Z,1.42
2019-03-24T13:54:36.274Z,1.82
2019-03-24T13:57:07.820Z,2.00
2019-03-24T13:59:39.310Z,1.30
2019-03-24T14:02:10.904Z,1.50
2019-03-24T14:04:42.466Z,1.35
2019-03-24T14:07:14.949Z,1.30
2019-03-24T14:09:46.537Z,1.90
2019-03-24T14:12:18.024Z,1.20
2019-03-24T14:14:50.496Z,1.37
2019-03-24T14:17:22.099Z,1.30
2019-03-24T14:19:53.698Z,1.47
2019-03-24T14:22:25.195Z,1.55
2019-03-24T14:24:56.709Z,1.50
2019-03-24T14:27:28.238Z,1.52
2019-03-24T14:29:59.848Z,1.50
2019-03-24T14:32:31.370Z,1.35
2019-03-24T14:35:02.887Z,1.47
2019-03-24T14:37:34.398Z,1.57
2019-03-24T14:40:07.240Z,1.60
2019-03-24T14:42:38.741Z,1.95
2019-03-24T14:45:10.411Z,1.77
2019-03-24T14:47:41.911Z,1.45
2019-03-24T14:50:13.495Z,1.67
2019-03-24T14:52:44.955Z,1.80
2019-03-24T14:55:16.472Z,2.10
2019-03-24T14:57:48.056Z,1.75
2019-03-24T15:00:42.720Z,1.52
2019-03-24T15:03:14.288Z,1.50
2019-03-24T15:05:45.866Z,1.75
2019-03-24T15:08:17.458Z,1.35
2019-03-24T15:10:48.982Z,1.85
2019-03-24T15:13:20.508Z,1.55
2019-03-24T15:15:52.026Z,1.72
2019-03-24T15:18:23.615Z,1.85
2019-03-24T15:21:05.177Z,1.90
2019-03-24T15:23:28.531Z,1.70
2019-03-24T15:26:01.181Z,1.80
2019-03-24T15:28:33.772Z,1.70
2019-03-24T15:31:05.293Z,1.90
2019-03-24T15:33:36.807Z,2.27
2019-03-24T15:36:08.409Z,2.10
2019-03-24T15:38:39.990Z,2.00
2019-03-24T15:41:11.522Z,1.75
2019-03-24T15:43:43.036Z,1.95
2019-03-24T15:46:14.562Z,2.12
2019-03-24T15:48:46.068Z,1.60
2019-03-24T15:51:17.673Z,1.67
2019-03-24T15:53:49.276Z,1.75
2019-03-24T15:56:20.781Z,2.12
2019-03-24T15:58:52.364Z,1.47
2019-03-24T16:01:23.873Z,1.70
2019-03-24T16:03:55.461Z,2.00
2019-03-24T16:06:27.039Z,1.75
2019-03-24T16:08:58.590Z,1.95
2019-03-24T16:11:30.322Z,1.90
2019-03-24T16:14:01.835Z,2.05
2019-03-24T16:16:33.350Z,1.70
2019-03-24T16:19:04.853Z,2.10
2019-03-24T16:21:36.371Z,1.70
2019-03-24T16:24:07.953Z,1.35
2019-03-24T16:26:39.463Z,2.22
2019-03-24T16:29:11.108Z,1.40
2019-03-24T16:31:42.626Z,1.90
2019-03-24T16:34:14.115Z,1.40
2019-03-24T16:36:48.396Z,1.75
2019-03-24T16:39:19.939Z,2.00
2019-03-24T16:41:54.580Z,1.55
2019-03-24T16:44:26.069Z,1.82
2019-03-24T16:46:57.581Z,2.10
2019-03-24T16:49:29.090Z,2.25
2019-03-24T16:52:00.604Z,2.62
2019-03-24T16:54:32.091Z,1.85
2019-03-24T16:57:03.608Z,2.60
2019-03-24T16:59:35.123Z,1.90
2019-03-24T17:02:06.688Z,2.20
2019-03-24T17:04:38.175Z,2.30
2019-03-24T17:07:09.687Z,2.52
2019-03-24T17:09:41.204Z,2.02
2019-03-24T17:12:12.778Z,2.50
2019-03-24T17:14:44.354Z,2.55
2019-03-24T17:17:15.915Z,2.67
2019-03-24T17:19:47.524Z,3.40
2019-03-24T17:22:19.031Z,2.90
2019-03-24T17:24:50.584Z,3.00
2019-03-24T17:27:22.114Z,3.40
2019-03-24T17:29:53.702Z,3.27
2019-03-24T17:32:25.247Z,3.02
2019-03-24T17:34:56.737Z,3.10
2019-03-24T17:37:29.998Z,3.35
2019-03-24T17:40:01.691Z,3.33
2019-03-24T17:42:34.764Z,3.12
2019-03-24T17:45:10.954Z,3.12
2019-03-24T17:47:42.536Z,4.08
2019-03-24T17:50:14.210Z,4.85
2019-03-24T17:52:46.162Z,3.95
2019-03-24T17:55:27.203Z,3.62
2019-03-24T17:57:51.052Z,4.28
2019-03-24T18:00:41.657Z,5.08
2019-03-24T18:03:13.332Z,4.55
2019-03-24T18:05:44.983Z,5.33
2019-03-24T18:08:16.493Z,5.37
2019-03-24T18:10:48.007Z,5.90
2019-03-24T18:13:20.504Z,5.15
2019-03-24T18:15:52.017Z,5.90
2019-03-24T18:18:23.547Z,5.12
2019-03-24T18:20:55.140Z,5.05
2019-03-24T18:23:26.661Z,4.93
2019-03-24T18:25:58.189Z,3.57
2019-03-24T18:28:29.688Z,4.65
2019-03-24T18:31:01.344Z,3.70
2019-03-24T18:33:32.949Z,4.40
2019-03-24T18:36:04.563Z,3.85
2019-03-24T18:38:36.147Z,5.65
2019-03-24T18:41:07.713Z,5.50
2019-03-24T18:43:39.301Z,6.05
2019-03-24T18:46:10.870Z,5.20
2019-03-24T18:48:42.363Z,6.50
2019-03-24T18:51:13.951Z,6.80
2019-03-24T18:53:46.843Z,6.70
2019-03-24T18:56:18.380Z,5.75
2019-03-24T18:58:49.906Z,6.60
2019-03-24T19:01:21.442Z,6.60
2019-03-24T19:03:52.960Z,6.00
2019-03-24T19:06:24.552Z,5.93
2019-03-24T19:08:56.078Z,5.80
2019-03-24T19:11:27.702Z,5.50
2019-03-24T19:13:59.445Z,7.17
2019-03-24T19:16:31.058Z,6.73
2019-03-24T19:19:02.630Z,6.80
2019-03-24T19:21:34.652Z,6.67
2019-03-24T19:24:06.316Z,6.40
2019-03-24T19:26:40.330Z,6.07
2019-03-24T19:29:11.994Z,6.70
2019-03-24T19:31:43.641Z,6.47
2019-03-24T19:34:15.215Z,5.63
2019-03-24T19:36:46.801Z,5.90
2019-03-24T19:39:18.335Z,6.13
2019-03-24T19:41:51.715Z,5.60
2019-03-24T19:44:23.288Z,5.10
2019-03-24T19:46:55.847Z,5.70
2019-03-24T19:49:27.353Z,5.20
2019-03-24T19:51:58.874Z,4.87
2019-03-24T19:54:30.423Z,6.50
2019-03-24T19:57:02.113Z,6.30
2019-03-24T19:59:33.759Z,6.60
2019-03-24T20:02:05.245Z,6.27
2019-03-24T20:04:36.812Z,5.40
2019-03-24T20:07:08.371Z,6.00
2019-03-24T20:09:39.965Z,5.30
2019-03-24T20:12:11.616Z,6.40
2019-03-24T20:14:43.196Z,7.57
2019-03-24T20:17:14.779Z,5.80
2019-03-24T20:19:46.305Z,6.03
2019-03-24T20:22:17.841Z,6.27
2019-03-24T20:24:49.484Z,7.07
2019-03-24T20:27:21.064Z,6.33
2019-03-24T20:29:52.585Z,6.10
2019-03-24T20:32:25.165Z,5.97
2019-03-24T20:34:56.734Z,7.73
2019-03-24T20:37:28.242Z,7.07
2019-03-24T20:39:59.746Z,6.50
2019-03-24T20:42:31.255Z,6.87
2019-03-24T20:45:04.518Z,7.07
2019-03-24T20:47:36.156Z,7.10
2019-03-24T20:50:10.737Z,7.50
2019-03-24T20:52:42.267Z,7.93
2019-03-24T20:55:13.903Z,6.00
2019-03-24T20:57:45.463Z,6.40
2019-03-24T21:00:21.465Z,6.20
2019-03-24T21:02:53.042Z,7.90
2019-03-24T21:05:24.621Z,6.83
2019-03-24T21:07:56.216Z,7.10
2019-03-24T21:10:27.725Z,7.17
2019-03-24T21:12:59.301Z,7.57
2019-03-24T21:15:30.877Z,7.80
2019-03-24T21:18:02.383Z,6.97
2019-03-24T21:20:33.960Z,7.67
2019-03-24T21:23:05.667Z,6.50
2019-03-24T21:25:37.181Z,6.50
2019-03-24T21:28:08.697Z,5.97
2019-03-24T21:30:41.332Z,8.03
2019-03-24T21:33:13.999Z,6.80
2019-03-24T21:35:45.587Z,8.13
2019-03-24T21:38:17.110Z,6.93
2019-03-24T21:40:48.640Z,6.63
2019-03-24T21:43:20.155Z,7.60
2019-03-24T21:45:51.659Z,7.93
2019-03-24T21:48:23.244Z,7.00
2019-03-24T21:50:54.803Z,7.10
2019-03-24T21:53:26.370Z,7.47
2019-03-24T21:55:57.871Z,8.40
2019-03-24T21:58:29.540Z,7.90
2019-03-24T22:01:01.066Z,7.40
2019-03-24T22:03:32.640Z,7.50
2019-03-24T22:06:04.216Z,6.40
2019-03-24T22:08:35.795Z,7.50
2019-03-24T22:11:07.380Z,7.20
2019-03-24T22:13:39.035Z,6.20
2019-03-24T22:16:10.595Z,8.47
2019-03-24T22:18:42.959Z,6.50
2019-03-24T22:21:15.561Z,7.90
2019-03-24T22:23:52.163Z,7.50
2019-03-24T22:26:20.406Z,7.37
2019-03-24T22:28:51.922Z,6.50
2019-03-24T22:31:23.454Z,6.87
2019-03-24T22:33:55.027Z,7.27
2019-03-24T22:36:26.576Z,6.63
2019-03-24T22:38:58.081Z,7.90
2019-03-24T22:41:31.235Z,6.30
2019-03-24T22:44:02.803Z,7.40
2019-03-24T22:46:34.304Z,5.93
2019-03-24T22:49:05.798Z,8.17
2019-03-24T22:51:37.450Z,8.23
2019-03-24T22:54:08.965Z,9.23
2019-03-24T22:56:41.550Z,10.50
2019-03-24T22:59:13.118Z,7.83
2019-03-24T23:01:45.791Z,6.40
2019-03-24T23:04:17.358Z,6.43
2019-03-24T23:06:48.867Z,5.17
2019-03-24T23:09:20.386Z,6.50
2019-03-24T23:11:51.886Z,6.43
2019-03-24T23:14:23.422Z,7.63
2019-03-24T23:16:54.937Z,6.50
2019-03-24T23:19:26.534Z,6.60
2019-03-24T23:21:58.132Z,6.83
2019-03-24T23:24:29.736Z,6.27
2019-03-24T23:27:01.335Z,7.67
2019-03-24T23:29:32.857Z,6.70
2019-03-24T23:32:04.511Z,7.17
2019-03-24T23:34:37.043Z,7.13
2019-03-24T23:37:08.584Z,5.80
2019-03-24T23:39:40.223Z,7.37
2019-03-24T23:42:11.729Z,6.13
2019-03-24T23:44:43.241Z,5.43
2019-03-24T23:47:14.759Z,7.80
2019-03-24T23:49:46.274Z,10.73
2019-03-24T23:52:17.839Z,10.43
2019-03-24T23:54:49.493Z,13.50
2019-03-24T23:57:21.988Z,11.17
2019-03-24T23:59:53.507Z,13.73
